Terminal Aerodrome Forecast
Issued by NWS

Home | Current Version | Previous Version | Text Only | Print | Product List | Glossary On
Versions: 1 2 3 4 5 6 7 8 9 10 11 12
259
FTUS46 KPDT 241720
TAFDLS
TAF
KDLS 241720Z 2418/2518 33015G25KT P6SM SCT070 SCT200
     FM250500 32012KT P6SM SCT100=

USA.gov is the U.S. government's official web portal to all federal, state and local government web resources and services.